createdAt,value
2023-02-04T00:00:01.643Z,7.45
2023-02-04T00:02:28.527Z,7.28
2023-02-04T00:04:56.705Z,11.40
2023-02-04T00:07:23.494Z,9.32
2023-02-04T00:09:50.252Z,9.50
2023-02-04T00:12:17.172Z,8.43
2023-02-04T00:14:43.706Z,13.15
2023-02-04T00:17:13.199Z,13.13
2023-02-04T00:19:42.856Z,15.10
2023-02-04T00:22:10.123Z,7.13
2023-02-04T00:24:37.542Z,7.68
2023-02-04T00:27:05.139Z,9.52
2023-02-04T00:29:31.813Z,6.95
2023-02-04T00:31:58.717Z,8.50
2023-02-04T00:34:27.322Z,8.45
2023-02-04T00:36:53.889Z,8.27
2023-02-04T00:39:21.032Z,7.25
2023-02-04T00:41:48.066Z,8.32
2023-02-04T00:44:14.682Z,9.10
2023-02-04T00:46:42.454Z,9.43
2023-02-04T00:49:10.941Z,11.00
2023-02-04T00:51:38.779Z,9.63
2023-02-04T00:54:06.054Z,11.38
2023-02-04T00:56:33.252Z,10.15
2023-02-04T00:58:59.860Z,15.38
2023-02-04T01:01:26.490Z,11.75
2023-02-04T01:03:53.504Z,13.07
2023-02-04T01:06:20.133Z,14.10
2023-02-04T01:08:46.854Z,14.40
2023-02-04T01:11:13.591Z,13.90
2023-02-04T01:13:40.102Z,12.30
2023-02-04T01:16:06.742Z,16.02
2023-02-04T01:18:35.430Z,13.40
2023-02-04T01:21:28.706Z,13.68
2023-02-04T01:24:09.941Z,16.42
2023-02-04T01:26:56.920Z,15.57
2023-02-04T01:29:23.827Z,17.45
2023-02-04T01:31:50.957Z,18.50
2023-02-04T01:34:17.665Z,17.85
2023-02-04T01:36:44.346Z,17.00
2023-02-04T01:39:10.995Z,19.17
2023-02-04T01:41:37.532Z,18.67
2023-02-04T01:44:04.463Z,18.38
2023-02-04T01:46:31.111Z,17.08
2023-02-04T01:48:57.648Z,16.95
2023-02-04T01:51:28.055Z,18.83
2023-02-04T01:53:55.482Z,21.73
2023-02-04T01:56:28.227Z,21.33
2023-02-04T01:58:56.852Z,16.38
2023-02-04T02:01:39.035Z,19.30
2023-02-04T02:04:05.937Z,17.92
2023-02-04T02:06:33.126Z,16.65
2023-02-04T02:08:59.880Z,24.60
2023-02-04T02:11:26.755Z,18.40
2023-02-04T02:13:53.686Z,17.13
2023-02-04T02:16:20.286Z,13.25
2023-02-04T02:18:46.825Z,16.85
2023-02-04T02:21:14.923Z,14.68
2023-02-04T02:23:44.628Z,15.82
2023-02-04T02:26:11.267Z,17.92
2023-02-04T02:28:37.846Z,12.73
2023-02-04T02:31:04.654Z,15.77
2023-02-04T02:33:31.456Z,12.48
2023-02-04T02:35:58.110Z,11.45
2023-02-04T02:38:24.881Z,12.20
2023-02-04T02:40:52.825Z,13.77
2023-02-04T02:43:23.117Z,13.30
2023-02-04T02:45:50.438Z,16.00
2023-02-04T02:48:17.111Z,15.32
2023-02-04T02:50:44.276Z,15.38
2023-02-04T02:53:14.994Z,13.90
2023-02-04T02:55:42.637Z,14.30
2023-02-04T02:58:25.200Z,14.30
2023-02-04T03:00:52.221Z,13.95
2023-02-04T03:03:24.996Z,10.88
2023-02-04T03:05:53.310Z,10.65
2023-02-04T03:08:20.983Z,14.15
2023-02-04T03:10:47.658Z,14.02
2023-02-04T03:13:15.083Z,11.77
2023-02-04T03:15:42.896Z,12.68
2023-02-04T03:18:09.618Z,13.45
2023-02-04T03:20:37.261Z,15.77
2023-02-04T03:23:03.765Z,15.70
2023-02-04T03:25:59.461Z,12.10
2023-02-04T03:30:56.284Z,11.18
2023-02-04T03:33:29.090Z,13.55
2023-02-04T03:35:55.793Z,11.88
2023-02-04T03:38:23.218Z,11.80
2023-02-04T03:40:49.860Z,11.38
2023-02-04T03:43:16.409Z,11.93
2023-02-04T03:45:45.480Z,15.77
2023-02-04T03:48:12.588Z,11.80
2023-02-04T03:50:39.275Z,13.15
2023-02-04T03:53:05.889Z,11.98
2023-02-04T03:55:33.200Z,11.48
2023-02-04T03:58:00.041Z,13.68
2023-02-04T04:00:28.886Z,13.10
2023-02-04T04:02:55.837Z,15.57
2023-02-04T04:05:22.738Z,11.63
2023-02-04T04:07:49.357Z,15.30
2023-02-04T04:10:16.026Z,12.45
2023-02-04T04:12:48.232Z,14.80
2023-02-04T04:15:44.112Z,14.15
2023-02-04T04:18:13.640Z,15.50
2023-02-04T04:20:48.124Z,16.20
2023-02-04T04:23:16.993Z,12.57
2023-02-04T04:25:43.819Z,14.38
2023-02-04T04:28:10.577Z,14.57
2023-02-04T04:30:37.135Z,12.48
2023-02-04T04:33:03.928Z,15.82
2023-02-04T04:35:30.579Z,14.63
2023-02-04T04:37:57.126Z,14.32
2023-02-04T04:40:23.935Z,16.02
2023-02-04T04:42:50.995Z,12.95
2023-02-04T04:45:17.708Z,12.52
2023-02-04T04:47:44.338Z,12.88
2023-02-04T04:50:11.567Z,12.43
2023-02-04T04:52:38.153Z,17.45
2023-02-04T04:55:05.732Z,12.60
2023-02-04T04:57:32.449Z,12.90
2023-02-04T04:59:59.134Z,13.02
2023-02-04T05:02:25.928Z,13.15
2023-02-04T05:04:52.513Z,17.05
2023-02-04T05:07:19.335Z,14.75
2023-02-04T05:09:45.962Z,11.57
2023-02-04T05:12:12.805Z,13.13
2023-02-04T05:14:39.308Z,13.20
2023-02-04T05:17:05.990Z,13.95
2023-02-04T05:19:32.583Z,15.88
2023-02-04T05:22:01.730Z,14.32
2023-02-04T05:24:28.663Z,15.98
2023-02-04T05:26:55.417Z,16.23
2023-02-04T05:29:21.898Z,16.30
2023-02-04T05:31:48.509Z,14.95
2023-02-04T05:34:15.195Z,15.82
2023-02-04T05:36:41.860Z,15.50
2023-02-04T05:39:08.442Z,13.05
2023-02-04T05:41:35.057Z,13.05
2023-02-04T05:44:01.927Z,13.20
2023-02-04T05:46:28.538Z,17.13
2023-02-04T05:48:55.231Z,14.35
2023-02-04T05:51:21.931Z,14.35
2023-02-04T05:53:48.577Z,11.23
2023-02-04T05:56:15.217Z,15.20
2023-02-04T05:58:41.951Z,11.85
2023-02-04T06:01:08.522Z,12.57
2023-02-04T06:03:35.105Z,12.27
2023-02-04T06:06:01.804Z,14.77
2023-02-04T06:08:28.320Z,13.93
2023-02-04T06:10:55.014Z,14.95
2023-02-04T06:13:21.926Z,14.95
2023-02-04T06:15:48.683Z,13.88
2023-02-04T06:18:15.489Z,11.88
2023-02-04T06:20:42.083Z,14.52
2023-02-04T06:23:08.559Z,14.00
2023-02-04T06:25:35.234Z,13.25
2023-02-04T06:28:01.857Z,13.50
2023-02-04T06:30:28.599Z,10.57
2023-02-04T06:32:55.551Z,12.32
2023-02-04T06:35:22.182Z,15.85
2023-02-04T06:37:48.983Z,16.58
2023-02-04T06:40:15.762Z,13.27
2023-02-04T06:42:42.256Z,14.73
2023-02-04T06:45:09.024Z,11.98
2023-02-04T06:47:35.634Z,14.00
2023-02-04T06:50:02.281Z,12.27
2023-02-04T06:52:28.852Z,13.30
2023-02-04T06:54:55.622Z,11.02
2023-02-04T06:57:22.198Z,13.40
2023-02-04T06:59:56.389Z,13.30
2023-02-04T07:02:26.274Z,13.68
2023-02-04T07:04:54.757Z,10.07
2023-02-04T07:07:46.239Z,12.10
2023-02-04T07:10:13.472Z,10.77
2023-02-04T07:12:40.104Z,10.68
2023-02-04T07:15:06.856Z,13.60
2023-02-04T07:17:33.364Z,12.77
2023-02-04T07:19:59.883Z,13.63
2023-02-04T07:22:26.733Z,14.40
2023-02-04T07:24:53.331Z,10.95
2023-02-04T07:27:20.105Z,10.75
2023-02-04T07:29:46.800Z,12.57
2023-02-04T07:32:13.494Z,9.82
2023-02-04T07:34:40.171Z,13.40
2023-02-04T07:37:07.239Z,12.63
2023-02-04T07:39:33.921Z,9.32
2023-02-04T07:42:00.574Z,9.73
2023-02-04T07:44:33.903Z,10.77
2023-02-04T07:47:00.931Z,13.07
2023-02-04T07:52:16.079Z,9.88
2023-02-04T07:54:47.691Z,10.95
2023-02-04T07:57:24.035Z,10.70
2023-02-04T08:00:13.152Z,11.55
2023-02-04T08:02:40.268Z,11.57
2023-02-04T08:05:07.063Z,9.02
2023-02-04T08:07:33.841Z,10.20
2023-02-04T08:10:00.650Z,11.18
2023-02-04T08:12:27.811Z,11.85
2023-02-04T08:14:54.443Z,9.32
2023-02-04T08:17:21.876Z,15.27
2023-02-04T08:19:48.463Z,12.00
2023-02-04T08:22:15.289Z,15.27
2023-02-04T08:24:41.885Z,13.05
2023-02-04T08:27:08.537Z,10.02
2023-02-04T08:29:35.144Z,11.63
2023-02-04T08:32:13.648Z,14.05
2023-02-04T08:34:55.731Z,10.55
2023-02-04T08:40:33.133Z,11.05
2023-02-04T08:43:00.201Z,11.80
2023-02-04T08:45:26.970Z,11.65
2023-02-04T08:47:53.561Z,11.23
2023-02-04T08:50:20.072Z,10.63
2023-02-04T08:52:46.951Z,10.45
2023-02-04T08:55:13.700Z,13.88
2023-02-04T08:57:40.444Z,13.38
2023-02-04T09:00:08.126Z,10.50
2023-02-04T09:02:34.755Z,13.23
2023-02-04T09:05:01.429Z,12.38
2023-02-04T09:07:28.672Z,12.35
2023-02-04T09:09:55.416Z,10.98
2023-02-04T09:12:22.285Z,11.93
2023-02-04T09:14:48.964Z,12.43
2023-02-04T09:17:15.512Z,10.70
2023-02-04T09:19:42.278Z,11.02
2023-02-04T09:22:08.789Z,16.17
2023-02-04T09:24:37.844Z,16.75
2023-02-04T09:27:35.972Z,13.80
2023-02-04T09:32:43.685Z,16.45
2023-02-04T09:35:10.328Z,16.60
2023-02-04T09:37:36.937Z,14.95
2023-02-04T09:40:03.543Z,17.92
2023-02-04T09:42:30.290Z,13.45
2023-02-04T09:44:57.348Z,14.65
2023-02-04T09:47:25.537Z,12.48
2023-02-04T09:49:52.592Z,14.73
2023-02-04T09:52:19.788Z,15.70
2023-02-04T09:55:07.194Z,16.23
2023-02-04T09:57:34.287Z,14.43
2023-02-04T10:02:42.259Z,17.27
2023-02-04T10:05:37.475Z,14.02
2023-02-04T10:08:05.386Z,13.48
2023-02-04T10:10:32.220Z,16.60
2023-02-04T10:13:00.133Z,12.65
2023-02-04T10:15:26.924Z,14.85
2023-02-04T10:17:56.017Z,13.02
2023-02-04T10:20:23.516Z,13.73
2023-02-04T10:22:52.601Z,13.52
2023-02-04T10:25:20.668Z,17.60
2023-02-04T10:27:51.639Z,15.07
2023-02-04T10:30:20.670Z,12.95
2023-02-04T10:32:47.386Z,14.65
2023-02-04T10:35:15.259Z,14.98
2023-02-04T10:37:42.476Z,13.35
2023-02-04T10:40:29.872Z,17.52
2023-02-04T10:43:01.114Z,14.27
2023-02-04T10:45:30.795Z,16.15
2023-02-04T10:48:00.627Z,12.25
2023-02-04T10:50:36.079Z,12.45
2023-02-04T10:53:21.976Z,13.77
2023-02-04T10:55:49.251Z,14.55
2023-02-04T10:58:18.675Z,13.77
2023-02-04T11:00:45.178Z,8.98
2023-02-04T11:03:17.663Z,9.60
2023-02-04T11:05:44.455Z,9.35
2023-02-04T11:08:21.755Z,8.38
2023-02-04T11:10:50.552Z,10.50
2023-02-04T11:13:22.028Z,8.88
2023-02-04T11:15:51.080Z,8.48
2023-02-04T11:18:21.016Z,11.85
2023-02-04T11:20:48.804Z,11.82
2023-02-04T11:23:28.767Z,10.75
2023-02-04T11:26:07.709Z,12.82
2023-02-04T11:28:51.252Z,11.38
2023-02-04T11:31:20.883Z,11.07
2023-02-04T11:33:48.417Z,10.52
2023-02-04T11:36:15.657Z,13.55
2023-02-04T11:38:49.996Z,11.52
2023-02-04T11:41:29.293Z,9.40
2023-02-04T11:43:57.366Z,13.32
2023-02-04T11:46:31.499Z,9.27
2023-02-04T11:48:59.111Z,14.05
2023-02-04T11:51:53.720Z,11.43
2023-02-04T11:54:24.689Z,11.57
2023-02-04T11:56:52.773Z,10.60
2023-02-04T11:59:21.525Z,11.43
2023-02-04T12:01:48.103Z,10.75
2023-02-04T12:04:25.108Z,10.07
2023-02-04T12:07:02.471Z,13.23
2023-02-04T12:09:30.441Z,12.52
2023-02-04T12:11:58.068Z,10.63
2023-02-04T12:14:34.881Z,9.75
2023-02-04T12:17:01.823Z,11.38
2023-02-04T12:19:28.425Z,13.05
2023-02-04T12:21:56.014Z,9.50
2023-02-04T12:24:22.951Z,10.68
2023-02-04T12:26:49.924Z,11.15
2023-02-04T12:29:16.993Z,12.10
2023-02-04T12:31:43.919Z,9.63
2023-02-04T12:34:11.580Z,11.73
2023-02-04T12:36:38.488Z,7.80
2023-02-04T12:39:04.982Z,9.75
2023-02-04T12:41:31.630Z,9.00
2023-02-04T12:43:58.694Z,12.77
2023-02-04T12:46:25.532Z,13.75
2023-02-04T12:48:52.277Z,9.43
2023-02-04T12:51:21.056Z,9.85
2023-02-04T12:57:56.428Z,12.73
2023-02-04T13:00:24.224Z,9.95
2023-02-04T13:02:50.813Z,9.27
2023-02-04T13:05:17.827Z,11.00
2023-02-04T13:07:44.545Z,11.20
2023-02-04T13:10:11.819Z,8.30
2023-02-04T13:12:38.448Z,9.55
2023-02-04T13:15:05.411Z,14.73
2023-02-04T13:17:32.124Z,9.77
2023-02-04T13:19:59.109Z,9.05
2023-02-04T13:22:25.970Z,10.85
2023-02-04T13:24:52.762Z,9.85
2023-02-04T13:27:21.864Z,10.63
2023-02-04T13:29:48.603Z,11.18
2023-02-04T13:32:15.254Z,9.27
2023-02-04T13:34:41.928Z,8.88
2023-02-04T13:37:08.494Z,7.45
2023-02-04T13:39:35.170Z,7.82
2023-02-04T13:42:04.215Z,9.50
2023-02-04T13:44:32.546Z,7.45
2023-02-04T13:46:59.127Z,9.00
2023-02-04T13:49:26.349Z,9.70
2023-02-04T13:51:52.961Z,9.50
2023-02-04T13:54:19.841Z,8.05
2023-02-04T13:56:46.567Z,8.70
2023-02-04T13:59:13.186Z,5.78
2023-02-04T14:01:40.221Z,8.68
2023-02-04T14:04:07.067Z,9.40
2023-02-04T14:06:34.509Z,6.30
2023-02-04T14:09:01.490Z,7.53
2023-02-04T14:11:28.332Z,8.27
2023-02-04T14:13:54.930Z,12.68
2023-02-04T14:16:22.038Z,5.85
2023-02-04T14:18:48.878Z,6.68
2023-02-04T14:21:15.699Z,7.70
2023-02-04T14:23:42.327Z,7.60
2023-02-04T14:26:09.581Z,5.95
2023-02-04T14:28:36.209Z,4.47
2023-02-04T14:31:02.781Z,4.68
2023-02-04T14:33:29.817Z,8.48
2023-02-04T14:35:56.630Z,7.03
2023-02-04T14:38:23.366Z,7.38
2023-02-04T14:40:50.042Z,4.55
2023-02-04T14:43:16.668Z,5.68
2023-02-04T14:45:43.288Z,7.25
2023-02-04T14:48:41.252Z,5.32
2023-02-04T14:51:09.169Z,4.40
2023-02-04T14:54:05.352Z,9.23
2023-02-04T14:56:32.228Z,5.18
2023-02-04T14:58:58.763Z,5.78
2023-02-04T15:01:27.654Z,7.15
2023-02-04T15:03:54.311Z,7.28
2023-02-04T15:06:21.039Z,10.75
2023-02-04T15:08:47.695Z,5.28
2023-02-04T15:11:14.495Z,6.30
2023-02-04T15:13:41.255Z,7.53
2023-02-04T15:16:08.156Z,7.30
2023-02-04T15:18:34.992Z,9.20
2023-02-04T15:21:01.745Z,6.30
2023-02-04T15:23:28.560Z,6.15
2023-02-04T15:25:57.598Z,6.60
2023-02-04T15:28:24.597Z,5.15
2023-02-04T15:30:51.663Z,5.88
2023-02-04T15:33:18.578Z,8.70
2023-02-04T15:35:45.134Z,10.13
2023-02-04T15:38:12.018Z,4.55
2023-02-04T15:40:38.690Z,6.38
2023-02-04T15:43:05.295Z,5.28
2023-02-04T15:45:31.875Z,5.45
2023-02-04T15:47:58.544Z,10.70
2023-02-04T15:50:25.247Z,6.55
2023-02-04T15:52:54.746Z,4.35
2023-02-04T15:55:21.438Z,7.70
2023-02-04T15:57:48.028Z,5.20
2023-02-04T16:00:14.849Z,5.85
2023-02-04T16:02:41.645Z,5.35
2023-02-04T16:05:08.738Z,5.25
2023-02-04T16:07:35.732Z,5.70
2023-02-04T16:10:02.640Z,5.50
2023-02-04T16:12:29.763Z,6.70
2023-02-04T16:14:56.409Z,4.88
2023-02-04T16:17:23.039Z,4.20
2023-02-04T16:19:51.850Z,4.50
2023-02-04T16:22:20.987Z,5.22
2023-02-04T16:24:52.834Z,4.75
2023-02-04T16:27:19.979Z,6.32
2023-02-04T16:29:46.561Z,10.90
2023-02-04T16:32:13.345Z,5.47
2023-02-04T16:34:40.065Z,8.38
2023-02-04T16:37:13.028Z,7.57
2023-02-04T16:40:13.319Z,7.30
2023-02-04T16:42:40.969Z,6.00
2023-02-04T16:45:07.761Z,4.95
2023-02-04T16:47:34.697Z,9.77
2023-02-04T16:50:01.249Z,5.03
2023-02-04T16:52:31.849Z,8.13
2023-02-04T16:55:01.531Z,9.43
2023-02-04T16:57:28.454Z,8.20
2023-02-04T16:59:55.034Z,15.23
2023-02-04T17:02:21.979Z,8.63
2023-02-04T17:04:48.516Z,7.68
2023-02-04T17:07:15.267Z,6.07
2023-02-04T17:09:42.427Z,8.20
2023-02-04T17:12:09.137Z,10.15
2023-02-04T17:14:39.194Z,9.70
2023-02-04T17:17:09.194Z,10.38
2023-02-04T17:19:36.274Z,12.90
2023-02-04T17:22:02.970Z,17.30
2023-02-04T17:24:30.342Z,20.08
2023-02-04T17:26:57.069Z,13.15
2023-02-04T17:29:24.925Z,12.25
2023-02-04T17:31:53.174Z,15.25
2023-02-04T17:34:20.711Z,8.48
2023-02-04T17:36:48.205Z,12.90
2023-02-04T17:39:14.983Z,8.70
2023-02-04T17:41:42.400Z,9.75
2023-02-04T17:44:09.993Z,10.13
2023-02-04T17:46:36.766Z,8.60
2023-02-04T17:49:03.629Z,11.35
2023-02-04T17:51:30.411Z,13.07
2023-02-04T17:53:57.106Z,18.55
2023-02-04T17:56:24.928Z,12.10
2023-02-04T17:58:51.772Z,12.02
2023-02-04T18:01:21.688Z,8.85
2023-02-04T18:03:48.632Z,12.68
2023-02-04T18:06:24.023Z,8.02
2023-02-04T18:08:51.761Z,10.80
2023-02-04T18:11:22.965Z,11.25
2023-02-04T18:13:49.843Z,12.15
2023-02-04T18:16:19.163Z,12.20
2023-02-04T18:18:45.847Z,12.32
2023-02-04T18:21:21.718Z,12.60
2023-02-04T18:23:49.724Z,11.90
2023-02-04T18:26:17.801Z,15.27
2023-02-04T18:28:46.057Z,14.05
2023-02-04T18:31:25.333Z,9.75
2023-02-04T18:33:52.110Z,10.68
2023-02-04T18:36:20.132Z,8.82
2023-02-04T18:38:47.118Z,15.93
2023-02-04T18:41:21.102Z,17.90
2023-02-04T18:43:50.672Z,13.02
2023-02-04T18:46:23.783Z,8.32
2023-02-04T18:49:00.809Z,9.38
2023-02-04T18:51:29.233Z,11.25
2023-02-04T18:53:58.172Z,8.20
2023-02-04T18:56:24.956Z,7.18
2023-02-04T18:58:51.886Z,8.07
2023-02-04T19:01:23.214Z,9.82
2023-02-04T19:04:03.448Z,7.22
2023-02-04T19:06:32.777Z,11.43
2023-02-04T19:09:08.560Z,10.48
2023-02-04T19:11:37.013Z,8.07
2023-02-04T19:14:13.745Z,7.70
2023-02-04T19:16:41.213Z,7.72
2023-02-04T19:19:26.632Z,9.60
2023-02-04T19:21:53.433Z,10.88
2023-02-04T19:24:21.861Z,9.02
2023-02-04T19:26:55.912Z,8.88
2023-02-04T19:29:22.892Z,7.65
2023-02-04T19:31:50.640Z,9.00
2023-02-04T19:34:23.560Z,10.02
2023-02-04T19:36:50.484Z,9.85
2023-02-04T19:39:35.358Z,10.32
2023-02-04T19:42:02.082Z,10.05
2023-02-04T19:44:31.798Z,9.82
2023-02-04T19:47:18.595Z,9.40
2023-02-04T19:49:45.097Z,10.00
2023-02-04T19:52:31.881Z,10.40
2023-02-04T19:55:09.568Z,12.88
2023-02-04T19:57:37.146Z,9.82
2023-02-04T20:00:23.818Z,10.15
2023-02-04T20:02:53.245Z,13.45
2023-02-04T20:05:20.808Z,10.15
2023-02-04T20:07:47.287Z,10.30
2023-02-04T20:10:24.882Z,10.25
2023-02-04T20:12:55.111Z,11.00
2023-02-04T20:15:23.709Z,10.18
2023-02-04T20:17:51.004Z,9.50
2023-02-04T20:20:17.741Z,11.25
2023-02-04T20:22:54.706Z,10.93
2023-02-04T20:25:21.731Z,12.13
2023-02-04T20:27:52.271Z,12.18
2023-02-04T20:30:37.675Z,11.02
2023-02-04T20:35:33.958Z,11.10
2023-02-04T20:38:07.902Z,12.82
2023-02-04T20:40:37.741Z,11.07
2023-02-04T20:43:16.583Z,13.00
2023-02-04T20:46:03.183Z,11.13
2023-02-04T20:48:33.618Z,12.25
2023-02-04T20:51:04.679Z,12.05
2023-02-04T20:53:41.201Z,10.00
2023-02-04T20:56:28.042Z,13.55
2023-02-04T20:58:57.345Z,10.55
2023-02-04T21:01:30.012Z,13.82
2023-02-04T21:03:58.089Z,12.48
2023-02-04T21:06:29.616Z,10.73
2023-02-04T21:08:59.888Z,12.30
2023-02-04T21:11:30.360Z,10.38
2023-02-04T21:13:57.139Z,12.63
2023-02-04T21:16:23.807Z,11.80
2023-02-04T21:18:51.055Z,12.95
2023-02-04T21:21:18.012Z,9.50
2023-02-04T21:23:44.644Z,10.43
2023-02-04T21:26:11.281Z,9.55
2023-02-04T21:28:38.112Z,8.80
2023-02-04T21:31:04.962Z,11.30
2023-02-04T21:33:32.247Z,11.43
2023-02-04T21:35:58.832Z,10.85
2023-02-04T21:38:25.776Z,7.93
2023-02-04T21:40:52.628Z,9.55
2023-02-04T21:43:19.624Z,9.10
2023-02-04T21:45:46.241Z,7.45
2023-02-04T21:48:12.913Z,9.48
2023-02-04T21:50:39.618Z,10.30
2023-02-04T21:53:08.556Z,8.88
2023-02-04T21:55:36.000Z,13.43
2023-02-04T21:58:02.950Z,10.30
2023-02-04T22:00:29.630Z,9.75
2023-02-04T22:02:56.619Z,8.40
2023-02-04T22:05:23.437Z,7.82
2023-02-04T22:07:50.774Z,8.77
2023-02-04T22:10:19.453Z,8.77
2023-02-04T22:12:46.409Z,8.98
2023-02-04T22:15:13.048Z,6.72
2023-02-04T22:17:39.872Z,6.82
2023-02-04T22:20:06.822Z,5.68
2023-02-04T22:22:33.447Z,6.93
2023-02-04T22:25:00.192Z,7.70
2023-02-04T22:27:26.951Z,10.63
2023-02-04T22:29:53.517Z,6.82
2023-02-04T22:32:21.288Z,6.10
2023-02-04T22:34:47.767Z,7.75
2023-02-04T22:37:14.425Z,7.00
2023-02-04T22:39:41.145Z,9.18
2023-02-04T22:42:08.920Z,6.15
2023-02-04T22:44:35.623Z,6.90
2023-02-04T22:47:02.478Z,7.70
2023-02-04T22:49:29.401Z,6.50
2023-02-04T22:51:56.117Z,5.40
2023-02-04T22:54:22.801Z,6.00
2023-02-04T22:56:51.936Z,7.47
2023-02-04T22:59:20.277Z,5.65
2023-02-04T23:01:46.929Z,4.28
2023-02-04T23:04:13.501Z,5.07
2023-02-04T23:06:40.153Z,5.03
2023-02-04T23:09:06.654Z,7.82
2023-02-04T23:11:33.524Z,7.28
2023-02-04T23:14:00.099Z,5.93
2023-02-04T23:16:26.826Z,5.22
2023-02-04T23:18:53.421Z,5.43
2023-02-04T23:21:20.976Z,4.93
2023-02-04T23:23:47.913Z,3.92
2023-02-04T23:26:14.546Z,4.18
2023-02-04T23:28:41.066Z,4.15
2023-02-04T23:31:07.965Z,4.45
2023-02-04T23:33:35.090Z,5.45
2023-02-04T23:36:01.826Z,4.90
2023-02-04T23:38:31.157Z,5.18
2023-02-04T23:41:00.300Z,4.28
2023-02-04T23:43:27.620Z,4.72
2023-02-04T23:45:56.811Z,5.05
2023-02-04T23:48:24.552Z,5.13
2023-02-04T23:50:51.512Z,4.40
2023-02-04T23:53:19.848Z,5.63
2023-02-04T23:55:50.603Z,3.60
2023-02-04T23:58:17.797Z,2.30
